Terminal Aerodrome Forecast
Issued by NWS

Home | Current Version | Previous Version | Text Only | Print | Product List | Glossary On
Versions: 1 2 3 4 5 6 7 8 9 10 11 12 13 14 15 16 17 18 19 20 21
000
FTUS43 KAPX 261244 AAB
TAFMBL
TAF AMD
KMBL 261244Z 2613/2712 00000KT P6SM FEW008
     FM261400 VRB03KT P6SM SKC
     FM261800 26007KT P6SM SKC
     FM270100 VRB03KT P6SM FEW150=

USA.gov is the U.S. government's official web portal to all federal, state and local government web resources and services.